sensor_id;sensor_type;location;lat;lon;timestamp;P1;durP1;ratioP1;P2;durP2;ratioP2
24677;SDS011;12800;53.094;8.778;2022-09-09T00:00:25;6.93;;;6.22;;
24677;SDS011;12800;53.094;8.778;2022-09-09T00:03:06;7.93;;;7.05;;
24677;SDS011;12800;53.094;8.778;2022-09-09T00:08:47;11.55;;;8.40;;
24677;SDS011;12800;53.094;8.778;2022-09-09T00:11:16;10.93;;;7.90;;
24677;SDS011;12800;53.094;8.778;2022-09-09T00:13:51;15.18;;;9.48;;
24677;SDS011;12800;53.094;8.778;2022-09-09T00:22:23;12.00;;;9.77;;
24677;SDS011;12800;53.094;8.778;2022-09-09T00:24:42;13.35;;;10.43;;
24677;SDS011;12800;53.094;8.778;2022-09-09T00:27:11;13.07;;;10.27;;
24677;SDS011;12800;53.094;8.778;2022-09-09T00:29:43;12.98;;;10.10;;
24677;SDS011;12800;53.094;8.778;2022-09-09T00:32:14;12.68;;;10.30;;
24677;SDS011;12800;53.094;8.778;2022-09-09T00:35:03;12.68;;;10.80;;
24677;SDS011;12800;53.094;8.778;2022-09-09T00:37:41;12.55;;;10.82;;
24677;SDS011;12800;53.094;8.778;2022-09-09T00:40:19;16.08;;;11.45;;
24677;SDS011;12800;53.094;8.778;2022-09-09T00:42:58;13.60;;;10.15;;
24677;SDS011;12800;53.094;8.778;2022-09-09T00:48:38;14.65;;;11.30;;
24677;SDS011;12800;53.094;8.778;2022-09-09T00:51:15;12.32;;;10.52;;
24677;SDS011;12800;53.094;8.778;2022-09-09T00:53:58;14.85;;;11.18;;
24677;SDS011;12800;53.094;8.778;2022-09-09T00:56:47;16.50;;;11.48;;
24677;SDS011;12800;53.094;8.778;2022-09-09T01:01:54;15.05;;;11.93;;
24677;SDS011;12800;53.094;8.778;2022-09-09T01:04:23;13.90;;;12.13;;
24677;SDS011;12800;53.094;8.778;2022-09-09T01:07:04;17.00;;;11.60;;
24677;SDS011;12800;53.094;8.778;2022-09-09T01:12:22;13.90;;;10.55;;
24677;SDS011;12800;53.094;8.778;2022-09-09T01:15:04;12.57;;;10.38;;
24677;SDS011;12800;53.094;8.778;2022-09-09T01:20:27;12.95;;;10.63;;
24677;SDS011;12800;53.094;8.778;2022-09-09T01:28:09;15.07;;;10.27;;
24677;SDS011;12800;53.094;8.778;2022-09-09T01:30:43;12.07;;;10.10;;
24677;SDS011;12800;53.094;8.778;2022-09-09T01:33:18;11.10;;;9.48;;
24677;SDS011;12800;53.094;8.778;2022-09-09T01:38:21;12.00;;;9.23;;
24677;SDS011;12800;53.094;8.778;2022-09-09T01:40:48;10.60;;;9.05;;
24677;SDS011;12800;53.094;8.778;2022-09-09T01:43:17;11.48;;;9.00;;
24677;SDS011;12800;53.094;8.778;2022-09-09T01:45:44;12.90;;;9.23;;
24677;SDS011;12800;53.094;8.778;2022-09-09T01:48:13;13.40;;;9.88;;
24677;SDS011;12800;53.094;8.778;2022-09-09T01:50:39;9.75;;;8.57;;
24677;SDS011;12800;53.094;8.778;2022-09-09T01:53:05;13.13;;;8.35;;
24677;SDS011;12800;53.094;8.778;2022-09-09T01:55:33;11.55;;;8.60;;
24677;SDS011;12800;53.094;8.778;2022-09-09T02:03:58;11.45;;;7.65;;
24677;SDS011;12800;53.094;8.778;2022-09-09T02:06:39;10.02;;;8.50;;
24677;SDS011;12800;53.094;8.778;2022-09-09T02:09:06;9.70;;;7.30;;
24677;SDS011;12800;53.094;8.778;2022-09-09T02:11:35;13.57;;;8.60;;
24677;SDS011;12800;53.094;8.778;2022-09-09T02:14:05;8.82;;;7.93;;
24677;SDS011;12800;53.094;8.778;2022-09-09T02:16:42;10.45;;;7.07;;
24677;SDS011;12800;53.094;8.778;2022-09-09T02:19:22;9.30;;;7.55;;
24677;SDS011;12800;53.094;8.778;2022-09-09T02:21:52;8.48;;;7.40;;
24677;SDS011;12800;53.094;8.778;2022-09-09T02:24:20;10.15;;;6.95;;
24677;SDS011;12800;53.094;8.778;2022-09-09T02:26:47;7.45;;;6.70;;
24677;SDS011;12800;53.094;8.778;2022-09-09T02:29:21;8.75;;;7.13;;
24677;SDS011;12800;53.094;8.778;2022-09-09T02:31:50;8.85;;;6.75;;
24677;SDS011;12800;53.094;8.778;2022-09-09T02:34:17;8.80;;;7.75;;
24677;SDS011;12800;53.094;8.778;2022-09-09T02:36:45;8.55;;;6.82;;
24677;SDS011;12800;53.094;8.778;2022-09-09T02:39:12;9.25;;;7.30;;
24677;SDS011;12800;53.094;8.778;2022-09-09T02:41:39;9.35;;;7.82;;
24677;SDS011;12800;53.094;8.778;2022-09-09T02:44:13;9.05;;;6.72;;
24677;SDS011;12800;53.094;8.778;2022-09-09T02:52:13;11.18;;;7.68;;
24677;SDS011;12800;53.094;8.778;2022-09-09T02:54:41;7.82;;;7.03;;
24677;SDS011;12800;53.094;8.778;2022-09-09T02:57:12;8.00;;;7.22;;
24677;SDS011;12800;53.094;8.778;2022-09-09T02:59:43;8.80;;;7.13;;
24677;SDS011;12800;53.094;8.778;2022-09-09T03:02:09;11.63;;;6.95;;
24677;SDS011;12800;53.094;8.778;2022-09-09T03:04:36;10.70;;;6.85;;
24677;SDS011;12800;53.094;8.778;2022-09-09T03:07:02;10.77;;;7.03;;
24677;SDS011;12800;53.094;8.778;2022-09-09T03:09:28;8.13;;;7.00;;
24677;SDS011;12800;53.094;8.778;2022-09-09T03:11:54;12.30;;;7.03;;
24677;SDS011;12800;53.094;8.778;2022-09-09T03:14:20;15.82;;;7.50;;
24677;SDS011;12800;53.094;8.778;2022-09-09T03:16:49;12.32;;;8.93;;
24677;SDS011;12800;53.094;8.778;2022-09-09T03:19:15;9.48;;;7.68;;
24677;SDS011;12800;53.094;8.778;2022-09-09T03:21:41;9.48;;;7.57;;
24677;SDS011;12800;53.094;8.778;2022-09-09T03:24:06;9.20;;;7.25;;
24677;SDS011;12800;53.094;8.778;2022-09-09T03:26:32;11.60;;;7.03;;
24677;SDS011;12800;53.094;8.778;2022-09-09T03:28:58;10.02;;;6.18;;
24677;SDS011;12800;53.094;8.778;2022-09-09T03:31:25;10.32;;;6.20;;
24677;SDS011;12800;53.094;8.778;2022-09-09T03:33:54;7.75;;;6.28;;
24677;SDS011;12800;53.094;8.778;2022-09-09T03:36:22;10.98;;;5.82;;
24677;SDS011;12800;53.094;8.778;2022-09-09T03:38:48;9.77;;;5.30;;
24677;SDS011;12800;53.094;8.778;2022-09-09T03:41:13;8.57;;;4.85;;
24677;SDS011;12800;53.094;8.778;2022-09-09T03:43:39;6.13;;;5.45;;
24677;SDS011;12800;53.094;8.778;2022-09-09T03:46:05;6.57;;;5.75;;
24677;SDS011;12800;53.094;8.778;2022-09-09T03:48:30;6.78;;;5.70;;
24677;SDS011;12800;53.094;8.778;2022-09-09T03:50:56;5.78;;;4.57;;
24677;SDS011;12800;53.094;8.778;2022-09-09T03:53:23;7.18;;;5.07;;
24677;SDS011;12800;53.094;8.778;2022-09-09T03:55:50;11.82;;;5.63;;
24677;SDS011;12800;53.094;8.778;2022-09-09T03:58:19;8.35;;;5.30;;
24677;SDS011;12800;53.094;8.778;2022-09-09T04:00:53;8.88;;;4.95;;
24677;SDS011;12800;53.094;8.778;2022-09-09T04:03:20;7.07;;;5.05;;
24677;SDS011;12800;53.094;8.778;2022-09-09T04:05:48;8.38;;;5.32;;
24677;SDS011;12800;53.094;8.778;2022-09-09T04:08:14;8.38;;;5.13;;
24677;SDS011;12800;53.094;8.778;2022-09-09T04:10:39;7.03;;;4.53;;
24677;SDS011;12800;53.094;8.778;2022-09-09T04:13:06;5.30;;;4.80;;
24677;SDS011;12800;53.094;8.778;2022-09-09T04:15:32;5.20;;;4.70;;
24677;SDS011;12800;53.094;8.778;2022-09-09T04:17:58;8.23;;;5.00;;
24677;SDS011;12800;53.094;8.778;2022-09-09T04:20:23;7.20;;;4.85;;
24677;SDS011;12800;53.094;8.778;2022-09-09T04:22:49;5.75;;;5.18;;
24677;SDS011;12800;53.094;8.778;2022-09-09T04:25:15;6.43;;;4.43;;
24677;SDS011;12800;53.094;8.778;2022-09-09T04:27:40;6.38;;;4.97;;
24677;SDS011;12800;53.094;8.778;2022-09-09T04:30:08;10.18;;;4.47;;
24677;SDS011;12800;53.094;8.778;2022-09-09T04:32:34;6.97;;;4.60;;
24677;SDS011;12800;53.094;8.778;2022-09-09T04:35:00;8.82;;;4.97;;
24677;SDS011;12800;53.094;8.778;2022-09-09T04:37:26;5.55;;;4.40;;
24677;SDS011;12800;53.094;8.778;2022-09-09T04:39:52;7.40;;;4.22;;
24677;SDS011;12800;53.094;8.778;2022-09-09T04:42:17;8.07;;;4.35;;
24677;SDS011;12800;53.094;8.778;2022-09-09T04:44:44;5.40;;;4.25;;
24677;SDS011;12800;53.094;8.778;2022-09-09T04:47:09;8.77;;;5.22;;
24677;SDS011;12800;53.094;8.778;2022-09-09T04:49:36;4.63;;;3.67;;
24677;SDS011;12800;53.094;8.778;2022-09-09T04:52:02;6.32;;;4.28;;
24677;SDS011;12800;53.094;8.778;2022-09-09T04:54:28;7.60;;;4.50;;
24677;SDS011;12800;53.094;8.778;2022-09-09T04:56:54;7.63;;;4.18;;
24677;SDS011;12800;53.094;8.778;2022-09-09T04:59:20;6.80;;;4.18;;
24677;SDS011;12800;53.094;8.778;2022-09-09T05:01:46;7.63;;;4.40;;
24677;SDS011;12800;53.094;8.778;2022-09-09T05:04:12;6.72;;;4.15;;
24677;SDS011;12800;53.094;8.778;2022-09-09T05:06:40;6.15;;;4.28;;
24677;SDS011;12800;53.094;8.778;2022-09-09T05:09:06;5.15;;;4.30;;
24677;SDS011;12800;53.094;8.778;2022-09-09T05:11:32;5.22;;;4.05;;
24677;SDS011;12800;53.094;8.778;2022-09-09T05:14:01;4.85;;;4.35;;
24677;SDS011;12800;53.094;8.778;2022-09-09T05:16:26;7.10;;;4.32;;
24677;SDS011;12800;53.094;8.778;2022-09-09T05:18:52;7.35;;;4.20;;
24677;SDS011;12800;53.094;8.778;2022-09-09T05:21:21;6.72;;;4.65;;
24677;SDS011;12800;53.094;8.778;2022-09-09T05:23:48;5.40;;;4.15;;
24677;SDS011;12800;53.094;8.778;2022-09-09T05:26:17;5.88;;;3.75;;
24677;SDS011;12800;53.094;8.778;2022-09-09T05:28:44;5.45;;;4.05;;
24677;SDS011;12800;53.094;8.778;2022-09-09T05:31:11;7.05;;;3.75;;
24677;SDS011;12800;53.094;8.778;2022-09-09T05:33:38;6.40;;;4.18;;
24677;SDS011;12800;53.094;8.778;2022-09-09T05:36:09;6.60;;;4.30;;
24677;SDS011;12800;53.094;8.778;2022-09-09T05:38:38;7.75;;;3.50;;
24677;SDS011;12800;53.094;8.778;2022-09-09T05:41:05;6.22;;;4.57;;
24677;SDS011;12800;53.094;8.778;2022-09-09T05:43:32;5.75;;;3.90;;
24677;SDS011;12800;53.094;8.778;2022-09-09T05:45:59;6.18;;;4.15;;
24677;SDS011;12800;53.094;8.778;2022-09-09T05:48:33;8.05;;;4.22;;
24677;SDS011;12800;53.094;8.778;2022-09-09T05:51:00;8.48;;;4.63;;
24677;SDS011;12800;53.094;8.778;2022-09-09T05:53:27;8.00;;;4.68;;
24677;SDS011;12800;53.094;8.778;2022-09-09T05:56:04;8.75;;;4.28;;
24677;SDS011;12800;53.094;8.778;2022-09-09T05:58:35;6.65;;;3.85;;
24677;SDS011;12800;53.094;8.778;2022-09-09T06:01:09;7.80;;;4.13;;
24677;SDS011;12800;53.094;8.778;2022-09-09T06:03:36;8.30;;;4.05;;
24677;SDS011;12800;53.094;8.778;2022-09-09T06:06:04;4.85;;;3.95;;
24677;SDS011;12800;53.094;8.778;2022-09-09T06:08:32;8.32;;;4.38;;
24677;SDS011;12800;53.094;8.778;2022-09-09T06:11:18;7.65;;;3.42;;
24677;SDS011;12800;53.094;8.778;2022-09-09T06:13:46;5.10;;;4.05;;
24677;SDS011;12800;53.094;8.778;2022-09-09T06:16:14;7.03;;;4.20;;
24677;SDS011;12800;53.094;8.778;2022-09-09T06:18:41;8.38;;;5.18;;
24677;SDS011;12800;53.094;8.778;2022-09-09T06:21:09;7.03;;;4.35;;
24677;SDS011;12800;53.094;8.778;2022-09-09T06:23:39;6.78;;;3.88;;
24677;SDS011;12800;53.094;8.778;2022-09-09T06:28:38;7.25;;;3.95;;
24677;SDS011;12800;53.094;8.778;2022-09-09T06:31:06;6.90;;;4.63;;
24677;SDS011;12800;53.094;8.778;2022-09-09T06:33:37;7.50;;;5.10;;
24677;SDS011;12800;53.094;8.778;2022-09-09T06:36:07;6.25;;;5.03;;
24677;SDS011;12800;53.094;8.778;2022-09-09T06:38:40;8.73;;;4.97;;
24677;SDS011;12800;53.094;8.778;2022-09-09T06:41:07;6.45;;;5.03;;
24677;SDS011;12800;53.094;8.778;2022-09-09T06:43:34;8.75;;;4.70;;
24677;SDS011;12800;53.094;8.778;2022-09-09T06:46:03;6.28;;;4.55;;
24677;SDS011;12800;53.094;8.778;2022-09-09T06:48:31;4.72;;;4.10;;
24677;SDS011;12800;53.094;8.778;2022-09-09T06:51:04;5.10;;;3.83;;
24677;SDS011;12800;53.094;8.778;2022-09-09T06:53:34;7.45;;;4.10;;
24677;SDS011;12800;53.094;8.778;2022-09-09T06:56:01;8.40;;;4.30;;
24677;SDS011;12800;53.094;8.778;2022-09-09T06:58:40;5.97;;;5.18;;
24677;SDS011;12800;53.094;8.778;2022-09-09T07:01:10;7.22;;;3.65;;
24677;SDS011;12800;53.094;8.778;2022-09-09T07:03:37;6.57;;;4.00;;
24677;SDS011;12800;53.094;8.778;2022-09-09T07:06:08;7.13;;;4.05;;
24677;SDS011;12800;53.094;8.778;2022-09-09T07:08:39;7.50;;;4.20;;
24677;SDS011;12800;53.094;8.778;2022-09-09T07:11:06;6.05;;;4.45;;
24677;SDS011;12800;53.094;8.778;2022-09-09T07:13:32;6.35;;;3.65;;
24677;SDS011;12800;53.094;8.778;2022-09-09T07:16:06;4.82;;;3.55;;
24677;SDS011;12800;53.094;8.778;2022-09-09T07:18:33;7.05;;;3.80;;
24677;SDS011;12800;53.094;8.778;2022-09-09T07:21:00;8.77;;;4.38;;
24677;SDS011;12800;53.094;8.778;2022-09-09T07:23:27;4.80;;;3.53;;
24677;SDS011;12800;53.094;8.778;2022-09-09T07:25:53;4.90;;;3.40;;
24677;SDS011;12800;53.094;8.778;2022-09-09T07:28:19;3.97;;;3.20;;
24677;SDS011;12800;53.094;8.778;2022-09-09T07:31:03;5.07;;;3.58;;
24677;SDS011;12800;53.094;8.778;2022-09-09T07:33:30;4.00;;;3.40;;
24677;SDS011;12800;53.094;8.778;2022-09-09T07:36:05;5.35;;;3.80;;
24677;SDS011;12800;53.094;8.778;2022-09-09T07:38:44;7.07;;;3.72;;
24677;SDS011;12800;53.094;8.778;2022-09-09T07:41:11;7.10;;;3.60;;
24677;SDS011;12800;53.094;8.778;2022-09-09T07:43:39;6.18;;;4.30;;
24677;SDS011;12800;53.094;8.778;2022-09-09T07:46:07;6.85;;;4.10;;
24677;SDS011;12800;53.094;8.778;2022-09-09T07:48:33;4.85;;;3.40;;
24677;SDS011;12800;53.094;8.778;2022-09-09T07:51:18;7.30;;;3.67;;
24677;SDS011;12800;53.094;8.778;2022-09-09T07:53:47;5.38;;;3.65;;
24677;SDS011;12800;53.094;8.778;2022-09-09T07:56:17;5.05;;;3.35;;
24677;SDS011;12800;53.094;8.778;2022-09-09T07:58:46;4.22;;;3.75;;
24677;SDS011;12800;53.094;8.778;2022-09-09T08:01:14;5.70;;;3.78;;
24677;SDS011;12800;53.094;8.778;2022-09-09T08:03:42;6.68;;;3.78;;
24677;SDS011;12800;53.094;8.778;2022-09-09T08:06:09;4.75;;;3.67;;
24677;SDS011;12800;53.094;8.778;2022-09-09T08:08:37;6.45;;;3.63;;
24677;SDS011;12800;53.094;8.778;2022-09-09T08:13:37;5.43;;;3.67;;
24677;SDS011;12800;53.094;8.778;2022-09-09T08:16:14;5.50;;;3.58;;
24677;SDS011;12800;53.094;8.778;2022-09-09T08:18:42;6.45;;;4.10;;
24677;SDS011;12800;53.094;8.778;2022-09-09T08:21:12;6.15;;;3.85;;
24677;SDS011;12800;53.094;8.778;2022-09-09T08:23:44;7.22;;;3.53;;
24677;SDS011;12800;53.094;8.778;2022-09-09T08:26:15;4.07;;;3.30;;
24677;SDS011;12800;53.094;8.778;2022-09-09T08:28:47;6.18;;;3.35;;
24677;SDS011;12800;53.094;8.778;2022-09-09T08:31:16;6.82;;;3.05;;
24677;SDS011;12800;53.094;8.778;2022-09-09T08:33:56;6.38;;;2.70;;
24677;SDS011;12800;53.094;8.778;2022-09-09T08:36:25;3.80;;;2.72;;
24677;SDS011;12800;53.094;8.778;2022-09-09T08:38:52;4.90;;;3.03;;
24677;SDS011;12800;53.094;8.778;2022-09-09T08:44:10;33.88;;;21.63;;
24677;SDS011;12800;53.094;8.778;2022-09-09T08:49:24;8.35;;;6.25;;
24677;SDS011;12800;53.094;8.778;2022-09-09T08:52:01;4.55;;;3.80;;
24677;SDS011;12800;53.094;8.778;2022-09-09T08:54:28;9.20;;;2.97;;
24677;SDS011;12800;53.094;8.778;2022-09-09T08:56:59;7.00;;;2.97;;
24677;SDS011;12800;53.094;8.778;2022-09-09T08:59:25;3.17;;;2.35;;
24677;SDS011;12800;53.094;8.778;2022-09-09T09:01:54;4.88;;;3.00;;
24677;SDS011;12800;53.094;8.778;2022-09-09T09:04:29;4.10;;;2.65;;
24677;SDS011;12800;53.094;8.778;2022-09-09T09:07:18;3.10;;;2.78;;
24677;SDS011;12800;53.094;8.778;2022-09-09T09:10:25;4.57;;;2.72;;
24677;SDS011;12800;53.094;8.778;2022-09-09T09:13:20;5.72;;;2.83;;
24677;SDS011;12800;53.094;8.778;2022-09-09T09:16:24;3.28;;;2.60;;
24677;SDS011;12800;53.094;8.778;2022-09-09T09:18:55;5.13;;;2.92;;
24677;SDS011;12800;53.094;8.778;2022-09-09T09:21:26;4.03;;;2.72;;
24677;SDS011;12800;53.094;8.778;2022-09-09T09:24:01;5.50;;;2.90;;
24677;SDS011;12800;53.094;8.778;2022-09-09T09:26:33;7.13;;;2.70;;
24677;SDS011;12800;53.094;8.778;2022-09-09T09:29:01;4.07;;;3.58;;
24677;SDS011;12800;53.094;8.778;2022-09-09T09:31:38;3.60;;;1.83;;
24677;SDS011;12800;53.094;8.778;2022-09-09T09:34:03;4.97;;;2.20;;
24677;SDS011;12800;53.094;8.778;2022-09-09T09:36:43;3.25;;;2.10;;
24677;SDS011;12800;53.094;8.778;2022-09-09T09:39:22;13.15;;;9.25;;
24677;SDS011;12800;53.094;8.778;2022-09-09T09:41:54;9.40;;;7.30;;
24677;SDS011;12800;53.094;8.778;2022-09-09T09:44:22;11.63;;;2.70;;
24677;SDS011;12800;53.094;8.778;2022-09-09T09:46:53;4.25;;;2.05;;
24677;SDS011;12800;53.094;8.778;2022-09-09T09:49:30;4.85;;;2.10;;
24677;SDS011;12800;53.094;8.778;2022-09-09T09:51:59;4.80;;;2.88;;
24677;SDS011;12800;53.094;8.778;2022-09-09T09:54:33;5.72;;;2.55;;
24677;SDS011;12800;53.094;8.778;2022-09-09T09:57:13;6.45;;;3.75;;
24677;SDS011;12800;53.094;8.778;2022-09-09T09:59:41;6.28;;;4.38;;
24677;SDS011;12800;53.094;8.778;2022-09-09T10:02:24;7.22;;;4.40;;
24677;SDS011;12800;53.094;8.778;2022-09-09T10:05:05;7.55;;;2.60;;
24677;SDS011;12800;53.094;8.778;2022-09-09T10:07:37;6.38;;;3.25;;
24677;SDS011;12800;53.094;8.778;2022-09-09T10:10:03;4.80;;;2.78;;
24677;SDS011;12800;53.094;8.778;2022-09-09T10:12:40;4.95;;;2.38;;
24677;SDS011;12800;53.094;8.778;2022-09-09T10:32:03;4.20;;;2.85;;
24677;SDS011;12800;53.094;8.778;2022-09-09T10:37:49;10.60;;;6.47;;
24677;SDS011;12800;53.094;8.778;2022-09-09T10:40:21;13.63;;;10.18;;
24677;SDS011;12800;53.094;8.778;2022-09-09T10:42:55;6.40;;;4.30;;
24677;SDS011;12800;53.094;8.778;2022-09-09T10:48:39;4.78;;;2.53;;
24677;SDS011;12800;53.094;8.778;2022-09-09T10:51:31;6.70;;;2.45;;
24677;SDS011;12800;53.094;8.778;2022-09-09T10:54:12;8.52;;;2.90;;
24677;SDS011;12800;53.094;8.778;2022-09-09T10:56:43;4.53;;;2.55;;
24677;SDS011;12800;53.094;8.778;2022-09-09T10:59:14;5.65;;;2.30;;
24677;SDS011;12800;53.094;8.778;2022-09-09T11:01:48;4.30;;;2.05;;
24677;SDS011;12800;53.094;8.778;2022-09-09T11:04:21;5.55;;;2.30;;
24677;SDS011;12800;53.094;8.778;2022-09-09T11:06:55;3.10;;;2.00;;
24677;SDS011;12800;53.094;8.778;2022-09-09T11:09:23;6.50;;;3.33;;
24677;SDS011;12800;53.094;8.778;2022-09-09T11:11:56;21.58;;;12.82;;
24677;SDS011;12800;53.094;8.778;2022-09-09T11:14:34;11.75;;;7.40;;
24677;SDS011;12800;53.094;8.778;2022-09-09T11:17:56;4.10;;;3.35;;
24677;SDS011;12800;53.094;8.778;2022-09-09T11:20:01;2.65;;;2.40;;
24677;SDS011;12800;53.094;8.778;2022-09-09T11:25:13;4.07;;;2.00;;
24677;SDS011;12800;53.094;8.778;2022-09-09T11:31:10;5.43;;;1.80;;
24677;SDS011;12800;53.094;8.778;2022-09-09T11:36:52;5.22;;;2.47;;
24677;SDS011;12800;53.094;8.778;2022-09-09T11:44:39;3.67;;;2.03;;
24677;SDS011;12800;53.094;8.778;2022-09-09T11:49:54;5.70;;;2.33;;
24677;SDS011;12800;53.094;8.778;2022-09-09T11:52:24;4.82;;;3.20;;
24677;SDS011;12800;53.094;8.778;2022-09-09T11:55:08;6.15;;;2.50;;
24677;SDS011;12800;53.094;8.778;2022-09-09T11:58:02;5.38;;;2.78;;
24677;SDS011;12800;53.094;8.778;2022-09-09T12:00:42;6.60;;;2.90;;
24677;SDS011;12800;53.094;8.778;2022-09-09T12:03:34;6.70;;;2.92;;
24677;SDS011;12800;53.094;8.778;2022-09-09T12:06:16;3.58;;;2.10;;
24677;SDS011;12800;53.094;8.778;2022-09-09T12:08:46;3.20;;;1.80;;
24677;SDS011;12800;53.094;8.778;2022-09-09T12:11:25;9.43;;;2.40;;
24677;SDS011;12800;53.094;8.778;2022-09-09T12:13:52;7.43;;;2.22;;
24677;SDS011;12800;53.094;8.778;2022-09-09T12:16:29;5.93;;;2.30;;
24677;SDS011;12800;53.094;8.778;2022-09-09T12:19:12;8.70;;;3.78;;
24677;SDS011;12800;53.094;8.778;2022-09-09T12:21:58;7.32;;;3.05;;
24677;SDS011;12800;53.094;8.778;2022-09-09T12:32:35;12.93;;;2.78;;
24677;SDS011;12800;53.094;8.778;2022-09-09T12:40:19;7.15;;;4.13;;
24677;SDS011;12800;53.094;8.778;2022-09-09T12:42:47;7.85;;;3.40;;
24677;SDS011;12800;53.094;8.778;2022-09-09T12:45:20;6.68;;;3.45;;
24677;SDS011;12800;53.094;8.778;2022-09-09T12:47:56;8.88;;;4.45;;
24677;SDS011;12800;53.094;8.778;2022-09-09T12:50:29;7.05;;;4.13;;
24677;SDS011;12800;53.094;8.778;2022-09-09T12:53:07;8.57;;;4.03;;
24677;SDS011;12800;53.094;8.778;2022-09-09T12:55:35;7.57;;;4.82;;
24677;SDS011;12800;53.094;8.778;2022-09-09T12:58:03;7.95;;;5.13;;
24677;SDS011;12800;53.094;8.778;2022-09-09T13:00:31;9.77;;;5.55;;
24677;SDS011;12800;53.094;8.778;2022-09-09T13:02:59;6.30;;;5.15;;
24677;SDS011;12800;53.094;8.778;2022-09-09T13:05:39;8.70;;;4.72;;
24677;SDS011;12800;53.094;8.778;2022-09-09T13:08:06;7.97;;;4.70;;
24677;SDS011;12800;53.094;8.778;2022-09-09T13:10:37;6.93;;;3.72;;
24677;SDS011;12800;53.094;8.778;2022-09-09T13:13:20;7.32;;;3.55;;
24677;SDS011;12800;53.094;8.778;2022-09-09T13:15:48;8.73;;;4.25;;
24677;SDS011;12800;53.094;8.778;2022-09-09T13:18:21;8.02;;;4.78;;
24677;SDS011;12800;53.094;8.778;2022-09-09T13:20:49;6.75;;;3.42;;
24677;SDS011;12800;53.094;8.778;2022-09-09T13:23:17;7.72;;;3.25;;
24677;SDS011;12800;53.094;8.778;2022-09-09T13:25:54;9.32;;;3.70;;
24677;SDS011;12800;53.094;8.778;2022-09-09T13:28:22;6.32;;;3.55;;
24677;SDS011;12800;53.094;8.778;2022-09-09T13:31:24;6.07;;;3.40;;
24677;SDS011;12800;53.094;8.778;2022-09-09T13:33:46;5.95;;;3.28;;
24677;SDS011;12800;53.094;8.778;2022-09-09T13:36:12;21.23;;;15.95;;
24677;SDS011;12800;53.094;8.778;2022-09-09T13:41:21;6.85;;;3.00;;
24677;SDS011;12800;53.094;8.778;2022-09-09T13:43:49;6.72;;;3.17;;
24677;SDS011;12800;53.094;8.778;2022-09-09T13:48:55;4.40;;;2.38;;
24677;SDS011;12800;53.094;8.778;2022-09-09T13:51:29;5.95;;;3.88;;
24677;SDS011;12800;53.094;8.778;2022-09-09T13:54:09;7.25;;;3.03;;
24677;SDS011;12800;53.094;8.778;2022-09-09T13:56:37;5.28;;;2.60;;
24677;SDS011;12800;53.094;8.778;2022-09-09T13:59:04;6.55;;;2.40;;
24677;SDS011;12800;53.094;8.778;2022-09-09T14:01:31;5.28;;;2.25;;
24677;SDS011;12800;53.094;8.778;2022-09-09T14:03:59;3.42;;;1.98;;
24677;SDS011;12800;53.094;8.778;2022-09-09T14:06:25;4.95;;;2.58;;
24677;SDS011;12800;53.094;8.778;2022-09-09T14:08:52;6.35;;;2.10;;
24677;SDS011;12800;53.094;8.778;2022-09-09T14:11:19;6.65;;;2.75;;
24677;SDS011;12800;53.094;8.778;2022-09-09T14:13:46;4.38;;;2.17;;
24677;SDS011;12800;53.094;8.778;2022-09-09T14:16:14;9.85;;;2.33;;
24677;SDS011;12800;53.094;8.778;2022-09-09T14:18:41;6.50;;;2.50;;
24677;SDS011;12800;53.094;8.778;2022-09-09T14:21:06;6.53;;;2.38;;
24677;SDS011;12800;53.094;8.778;2022-09-09T14:23:33;2.75;;;1.88;;
24677;SDS011;12800;53.094;8.778;2022-09-09T14:25:59;6.30;;;2.25;;
24677;SDS011;12800;53.094;8.778;2022-09-09T14:28:25;4.53;;;2.45;;
24677;SDS011;12800;53.094;8.778;2022-09-09T14:30:50;4.80;;;1.85;;
24677;SDS011;12800;53.094;8.778;2022-09-09T14:33:16;5.78;;;2.70;;
24677;SDS011;12800;53.094;8.778;2022-09-09T14:35:42;10.48;;;5.07;;
24677;SDS011;12800;53.094;8.778;2022-09-09T14:38:09;7.78;;;4.57;;
24677;SDS011;12800;53.094;8.778;2022-09-09T14:40:35;5.93;;;2.50;;
24677;SDS011;12800;53.094;8.778;2022-09-09T14:43:02;6.97;;;2.55;;
24677;SDS011;12800;53.094;8.778;2022-09-09T14:45:28;6.13;;;3.03;;
24677;SDS011;12800;53.094;8.778;2022-09-09T14:47:53;5.10;;;2.40;;
24677;SDS011;12800;53.094;8.778;2022-09-09T14:50:19;7.35;;;2.85;;
24677;SDS011;12800;53.094;8.778;2022-09-09T14:52:46;9.13;;;3.00;;
24677;SDS011;12800;53.094;8.778;2022-09-09T14:55:12;9.73;;;2.90;;
24677;SDS011;12800;53.094;8.778;2022-09-09T14:57:38;4.70;;;2.40;;
24677;SDS011;12800;53.094;8.778;2022-09-09T15:00:05;3.65;;;2.92;;
24677;SDS011;12800;53.094;8.778;2022-09-09T15:02:32;7.38;;;3.15;;
24677;SDS011;12800;53.094;8.778;2022-09-09T15:04:58;4.07;;;3.00;;
24677;SDS011;12800;53.094;8.778;2022-09-09T15:07:24;6.30;;;3.10;;
24677;SDS011;12800;53.094;8.778;2022-09-09T15:09:50;3.70;;;2.83;;
24677;SDS011;12800;53.094;8.778;2022-09-09T15:12:16;3.95;;;2.70;;
24677;SDS011;12800;53.094;8.778;2022-09-09T15:14:43;3.65;;;2.88;;
24677;SDS011;12800;53.094;8.778;2022-09-09T15:17:10;7.72;;;2.95;;
24677;SDS011;12800;53.094;8.778;2022-09-09T15:19:36;7.72;;;2.95;;
24677;SDS011;12800;53.094;8.778;2022-09-09T15:22:02;8.40;;;3.15;;
24677;SDS011;12800;53.094;8.778;2022-09-09T15:24:30;4.32;;;2.80;;
24677;SDS011;12800;53.094;8.778;2022-09-09T15:26:56;4.57;;;2.97;;
24677;SDS011;12800;53.094;8.778;2022-09-09T15:29:22;5.80;;;2.85;;
24677;SDS011;12800;53.094;8.778;2022-09-09T15:31:48;6.20;;;2.50;;
24677;SDS011;12800;53.094;8.778;2022-09-09T15:34:14;5.60;;;2.78;;
24677;SDS011;12800;53.094;8.778;2022-09-09T15:36:41;4.35;;;2.78;;
24677;SDS011;12800;53.094;8.778;2022-09-09T15:39:14;5.25;;;2.65;;
24677;SDS011;12800;53.094;8.778;2022-09-09T15:41:42;4.95;;;2.67;;
24677;SDS011;12800;53.094;8.778;2022-09-09T15:44:09;6.75;;;2.88;;
24677;SDS011;12800;53.094;8.778;2022-09-09T15:46:43;7.60;;;3.05;;
24677;SDS011;12800;53.094;8.778;2022-09-09T15:49:14;4.18;;;2.40;;
24677;SDS011;12800;53.094;8.778;2022-09-09T15:51:46;5.55;;;2.60;;
24677;SDS011;12800;53.094;8.778;2022-09-09T15:54:16;7.80;;;2.75;;
24677;SDS011;12800;53.094;8.778;2022-09-09T15:56:43;6.45;;;2.40;;
24677;SDS011;12800;53.094;8.778;2022-09-09T15:59:10;6.28;;;2.55;;
24677;SDS011;12800;53.094;8.778;2022-09-09T16:01:36;6.55;;;2.55;;
24677;SDS011;12800;53.094;8.778;2022-09-09T16:04:07;2.65;;;2.20;;
24677;SDS011;12800;53.094;8.778;2022-09-09T16:06:33;3.53;;;2.05;;
24677;SDS011;12800;53.094;8.778;2022-09-09T16:08:59;6.20;;;2.40;;
24677;SDS011;12800;53.094;8.778;2022-09-09T16:11:33;4.00;;;2.00;;
24677;SDS011;12800;53.094;8.778;2022-09-09T16:14:01;3.33;;;2.10;;
24677;SDS011;12800;53.094;8.778;2022-09-09T16:16:28;3.55;;;2.78;;
24677;SDS011;12800;53.094;8.778;2022-09-09T16:18:58;5.38;;;2.28;;
24677;SDS011;12800;53.094;8.778;2022-09-09T16:21:30;4.80;;;2.17;;
24677;SDS011;12800;53.094;8.778;2022-09-09T16:23:58;2.88;;;1.90;;
24677;SDS011;12800;53.094;8.778;2022-09-09T16:26:24;2.42;;;1.77;;
24677;SDS011;12800;53.094;8.778;2022-09-09T16:28:50;4.80;;;2.42;;
24677;SDS011;12800;53.094;8.778;2022-09-09T16:31:17;5.03;;;2.55;;
24677;SDS011;12800;53.094;8.778;2022-09-09T16:33:47;4.18;;;2.42;;
24677;SDS011;12800;53.094;8.778;2022-09-09T16:36:18;5.05;;;2.85;;
24677;SDS011;12800;53.094;8.778;2022-09-09T16:38:51;4.72;;;2.17;;
24677;SDS011;12800;53.094;8.778;2022-09-09T16:41:19;4.10;;;2.38;;
24677;SDS011;12800;53.094;8.778;2022-09-09T16:43:45;4.15;;;2.30;;
24677;SDS011;12800;53.094;8.778;2022-09-09T16:46:18;2.92;;;2.50;;
24677;SDS011;12800;53.094;8.778;2022-09-09T16:48:45;7.40;;;2.72;;
24677;SDS011;12800;53.094;8.778;2022-09-09T16:51:13;4.20;;;2.30;;
24677;SDS011;12800;53.094;8.778;2022-09-09T16:53:41;10.07;;;5.03;;